sensor_id;sensor_type;location;lat;lon;timestamp;P1;durP1;ratioP1;P2;durP2;ratioP2
69534;SDS011;56754;51.568;5.048;2023-05-20T00:00:03;5.20;;;1.83;;
69534;SDS011;56754;51.568;5.048;2023-05-20T00:02:29;4.88;;;1.88;;
69534;SDS011;56754;51.568;5.048;2023-05-20T00:04:55;7.30;;;2.20;;
69534;SDS011;56754;51.568;5.048;2023-05-20T00:07:20;5.80;;;1.90;;
69534;SDS011;56754;51.568;5.048;2023-05-20T00:09:45;7.57;;;1.88;;
69534;SDS011;56754;51.568;5.048;2023-05-20T00:12:11;5.27;;;1.90;;
69534;SDS011;56754;51.568;5.048;2023-05-20T00:14:36;6.00;;;1.93;;
69534;SDS011;56754;51.568;5.048;2023-05-20T00:17:01;5.37;;;2.03;;
69534;SDS011;56754;51.568;5.048;2023-05-20T00:19:27;5.33;;;1.60;;
69534;SDS011;56754;51.568;5.048;2023-05-20T00:21:52;7.63;;;2.30;;
69534;SDS011;56754;51.568;5.048;2023-05-20T00:24:17;5.40;;;1.90;;
69534;SDS011;56754;51.568;5.048;2023-05-20T00:26:42;6.43;;;2.20;;
69534;SDS011;56754;51.568;5.048;2023-05-20T00:29:08;5.17;;;1.70;;
69534;SDS011;56754;51.568;5.048;2023-05-20T00:31:33;5.93;;;2.17;;
69534;SDS011;56754;51.568;5.048;2023-05-20T00:33:58;6.10;;;2.00;;
69534;SDS011;56754;51.568;5.048;2023-05-20T00:36:24;6.00;;;1.70;;
69534;SDS011;56754;51.568;5.048;2023-05-20T00:38:49;7.40;;;2.17;;
69534;SDS011;56754;51.568;5.048;2023-05-20T00:41:14;6.57;;;2.07;;
69534;SDS011;56754;51.568;5.048;2023-05-20T00:43:39;6.33;;;2.23;;
69534;SDS011;56754;51.568;5.048;2023-05-20T00:46:05;5.53;;;1.95;;
69534;SDS011;56754;51.568;5.048;2023-05-20T00:48:31;6.93;;;2.23;;
69534;SDS011;56754;51.568;5.048;2023-05-20T00:51:10;7.17;;;1.60;;
69534;SDS011;56754;51.568;5.048;2023-05-20T00:53:36;6.47;;;2.20;;
69534;SDS011;56754;51.568;5.048;2023-05-20T00:56:03;5.03;;;1.90;;
69534;SDS011;56754;51.568;5.048;2023-05-20T00:58:28;4.38;;;1.70;;
69534;SDS011;56754;51.568;5.048;2023-05-20T01:00:54;5.72;;;2.10;;
69534;SDS011;56754;51.568;5.048;2023-05-20T01:03:20;5.90;;;1.80;;
69534;SDS011;56754;51.568;5.048;2023-05-20T01:05:47;4.23;;;1.67;;
69534;SDS011;56754;51.568;5.048;2023-05-20T01:08:12;7.13;;;2.07;;
69534;SDS011;56754;51.568;5.048;2023-05-20T01:10:38;5.97;;;2.10;;
69534;SDS011;56754;51.568;5.048;2023-05-20T01:13:10;6.68;;;2.28;;
69534;SDS011;56754;51.568;5.048;2023-05-20T01:15:38;8.50;;;2.15;;
69534;SDS011;56754;51.568;5.048;2023-05-20T01:18:06;6.95;;;2.17;;
69534;SDS011;56754;51.568;5.048;2023-05-20T01:20:33;5.93;;;1.90;;
69534;SDS011;56754;51.568;5.048;2023-05-20T01:22:59;8.17;;;2.33;;
69534;SDS011;56754;51.568;5.048;2023-05-20T01:25:24;5.78;;;1.98;;
69534;SDS011;56754;51.568;5.048;2023-05-20T01:27:50;5.07;;;1.83;;
69534;SDS011;56754;51.568;5.048;2023-05-20T01:30:16;7.05;;;2.13;;
69534;SDS011;56754;51.568;5.048;2023-05-20T01:32:42;6.90;;;2.10;;
69534;SDS011;56754;51.568;5.048;2023-05-20T01:35:12;8.07;;;2.30;;
69534;SDS011;56754;51.568;5.048;2023-05-20T01:37:39;6.22;;;2.00;;
69534;SDS011;56754;51.568;5.048;2023-05-20T01:40:09;7.50;;;2.08;;
69534;SDS011;56754;51.568;5.048;2023-05-20T01:42:37;6.50;;;2.40;;
69534;SDS011;56754;51.568;5.048;2023-05-20T01:45:05;7.80;;;2.40;;
69534;SDS011;56754;51.568;5.048;2023-05-20T01:47:31;5.88;;;2.10;;
69534;SDS011;56754;51.568;5.048;2023-05-20T01:49:56;5.77;;;2.27;;
69534;SDS011;56754;51.568;5.048;2023-05-20T01:52:22;6.63;;;2.33;;
69534;SDS011;56754;51.568;5.048;2023-05-20T01:54:47;7.17;;;2.07;;
69534;SDS011;56754;51.568;5.048;2023-05-20T01:57:13;5.70;;;2.15;;
69534;SDS011;56754;51.568;5.048;2023-05-20T01:59:38;5.53;;;2.17;;
69534;SDS011;56754;51.568;5.048;2023-05-20T02:02:03;7.43;;;1.93;;
69534;SDS011;56754;51.568;5.048;2023-05-20T02:04:29;5.80;;;2.00;;
69534;SDS011;56754;51.568;5.048;2023-05-20T02:06:54;6.37;;;2.10;;
69534;SDS011;56754;51.568;5.048;2023-05-20T02:09:19;7.00;;;2.33;;
69534;SDS011;56754;51.568;5.048;2023-05-20T02:11:45;5.07;;;1.93;;
69534;SDS011;56754;51.568;5.048;2023-05-20T02:14:10;5.30;;;2.00;;
69534;SDS011;56754;51.568;5.048;2023-05-20T02:16:35;5.87;;;2.40;;
69534;SDS011;56754;51.568;5.048;2023-05-20T02:19:00;5.77;;;2.30;;
69534;SDS011;56754;51.568;5.048;2023-05-20T02:21:26;5.90;;;2.13;;
69534;SDS011;56754;51.568;5.048;2023-05-20T02:23:51;7.17;;;2.27;;
69534;SDS011;56754;51.568;5.048;2023-05-20T02:26:16;5.03;;;1.90;;
69534;SDS011;56754;51.568;5.048;2023-05-20T02:28:41;5.97;;;2.30;;
69534;SDS011;56754;51.568;5.048;2023-05-20T02:31:07;5.30;;;2.15;;
69534;SDS011;56754;51.568;5.048;2023-05-20T02:33:32;6.67;;;2.17;;
69534;SDS011;56754;51.568;5.048;2023-05-20T02:35:57;6.13;;;2.37;;
69534;SDS011;56754;51.568;5.048;2023-05-20T02:38:23;6.20;;;2.10;;
69534;SDS011;56754;51.568;5.048;2023-05-20T02:40:48;7.63;;;2.37;;
69534;SDS011;56754;51.568;5.048;2023-05-20T02:43:14;6.28;;;2.20;;
69534;SDS011;56754;51.568;5.048;2023-05-20T02:45:39;6.37;;;2.27;;
69534;SDS011;56754;51.568;5.048;2023-05-20T02:48:04;6.33;;;2.50;;
69534;SDS011;56754;51.568;5.048;2023-05-20T02:50:29;6.27;;;2.03;;
69534;SDS011;56754;51.568;5.048;2023-05-20T02:52:55;6.93;;;2.17;;
69534;SDS011;56754;51.568;5.048;2023-05-20T02:55:20;5.70;;;2.13;;
69534;SDS011;56754;51.568;5.048;2023-05-20T02:57:45;6.43;;;2.40;;
69534;SDS011;56754;51.568;5.048;2023-05-20T03:00:11;8.40;;;2.53;;
69534;SDS011;56754;51.568;5.048;2023-05-20T03:02:36;7.57;;;2.47;;
69534;SDS011;56754;51.568;5.048;2023-05-20T03:05:02;4.93;;;2.10;;
69534;SDS011;56754;51.568;5.048;2023-05-20T03:07:27;6.43;;;2.27;;
69534;SDS011;56754;51.568;5.048;2023-05-20T03:09:52;5.80;;;2.17;;
69534;SDS011;56754;51.568;5.048;2023-05-20T03:12:17;6.37;;;2.37;;
69534;SDS011;56754;51.568;5.048;2023-05-20T03:14:43;5.43;;;1.98;;
69534;SDS011;56754;51.568;5.048;2023-05-20T03:17:08;5.67;;;2.03;;
69534;SDS011;56754;51.568;5.048;2023-05-20T03:19:34;6.03;;;1.77;;
69534;SDS011;56754;51.568;5.048;2023-05-20T03:21:59;6.70;;;2.27;;
69534;SDS011;56754;51.568;5.048;2023-05-20T03:24:25;8.47;;;2.40;;
69534;SDS011;56754;51.568;5.048;2023-05-20T03:26:51;7.65;;;2.38;;
69534;SDS011;56754;51.568;5.048;2023-05-20T03:29:16;9.37;;;2.47;;
69534;SDS011;56754;51.568;5.048;2023-05-20T03:31:41;7.93;;;2.73;;
69534;SDS011;56754;51.568;5.048;2023-05-20T03:34:07;9.93;;;2.60;;
69534;SDS011;56754;51.568;5.048;2023-05-20T03:36:32;7.85;;;2.90;;
69534;SDS011;56754;51.568;5.048;2023-05-20T03:38:57;7.37;;;2.33;;
69534;SDS011;56754;51.568;5.048;2023-05-20T03:41:23;6.97;;;2.50;;
69534;SDS011;56754;51.568;5.048;2023-05-20T03:43:48;9.67;;;2.87;;
69534;SDS011;56754;51.568;5.048;2023-05-20T03:46:13;6.57;;;2.80;;
69534;SDS011;56754;51.568;5.048;2023-05-20T03:48:39;8.80;;;2.70;;
69534;SDS011;56754;51.568;5.048;2023-05-20T03:51:04;8.43;;;2.50;;
69534;SDS011;56754;51.568;5.048;2023-05-20T03:53:29;7.07;;;2.73;;
69534;SDS011;56754;51.568;5.048;2023-05-20T03:55:54;9.00;;;2.38;;
69534;SDS011;56754;51.568;5.048;2023-05-20T03:58:20;6.80;;;2.40;;
69534;SDS011;56754;51.568;5.048;2023-05-20T04:00:45;8.63;;;2.63;;
69534;SDS011;56754;51.568;5.048;2023-05-20T04:03:11;5.93;;;2.30;;
69534;SDS011;56754;51.568;5.048;2023-05-20T04:05:36;8.80;;;2.90;;
69534;SDS011;56754;51.568;5.048;2023-05-20T04:08:01;6.60;;;2.92;;
69534;SDS011;56754;51.568;5.048;2023-05-20T04:10:27;8.90;;;2.67;;
69534;SDS011;56754;51.568;5.048;2023-05-20T04:12:52;7.40;;;2.57;;
69534;SDS011;56754;51.568;5.048;2023-05-20T04:15:17;5.73;;;2.57;;
69534;SDS011;56754;51.568;5.048;2023-05-20T04:17:43;7.10;;;2.47;;
69534;SDS011;56754;51.568;5.048;2023-05-20T04:20:08;6.13;;;2.07;;
69534;SDS011;56754;51.568;5.048;2023-05-20T04:22:34;9.75;;;2.70;;
69534;SDS011;56754;51.568;5.048;2023-05-20T04:24:59;8.90;;;2.60;;
69534;SDS011;56754;51.568;5.048;2023-05-20T04:27:24;11.47;;;2.50;;
69534;SDS011;56754;51.568;5.048;2023-05-20T04:29:53;5.90;;;2.30;;
69534;SDS011;56754;51.568;5.048;2023-05-20T04:32:18;6.43;;;2.40;;
69534;SDS011;56754;51.568;5.048;2023-05-20T04:34:44;7.50;;;2.60;;
69534;SDS011;56754;51.568;5.048;2023-05-20T04:37:10;6.63;;;2.42;;
69534;SDS011;56754;51.568;5.048;2023-05-20T04:39:36;7.43;;;2.50;;
69534;SDS011;56754;51.568;5.048;2023-05-20T04:42:02;11.67;;;2.80;;
69534;SDS011;56754;51.568;5.048;2023-05-20T04:44:27;8.55;;;2.83;;
69534;SDS011;56754;51.568;5.048;2023-05-20T04:46:53;7.70;;;2.75;;
69534;SDS011;56754;51.568;5.048;2023-05-20T04:49:18;6.77;;;2.57;;
69534;SDS011;56754;51.568;5.048;2023-05-20T04:51:43;7.90;;;2.50;;
69534;SDS011;56754;51.568;5.048;2023-05-20T04:54:09;7.83;;;2.20;;
69534;SDS011;56754;51.568;5.048;2023-05-20T04:56:34;6.47;;;2.40;;
69534;SDS011;56754;51.568;5.048;2023-05-20T04:58:59;7.83;;;2.90;;
69534;SDS011;56754;51.568;5.048;2023-05-20T05:01:25;8.93;;;2.50;;
69534;SDS011;56754;51.568;5.048;2023-05-20T05:03:50;6.93;;;2.42;;
69534;SDS011;56754;51.568;5.048;2023-05-20T05:06:18;6.00;;;2.50;;
69534;SDS011;56754;51.568;5.048;2023-05-20T05:08:44;5.40;;;2.13;;
69534;SDS011;56754;51.568;5.048;2023-05-20T05:11:09;6.88;;;2.40;;
69534;SDS011;56754;51.568;5.048;2023-05-20T05:13:34;6.57;;;2.47;;
69534;SDS011;56754;51.568;5.048;2023-05-20T05:16:00;6.17;;;2.13;;
69534;SDS011;56754;51.568;5.048;2023-05-20T05:18:26;6.35;;;2.28;;
69534;SDS011;56754;51.568;5.048;2023-05-20T05:23:26;6.70;;;2.30;;
69534;SDS011;56754;51.568;5.048;2023-05-20T05:25:52;8.13;;;2.10;;
69534;SDS011;56754;51.568;5.048;2023-05-20T05:28:17;7.47;;;2.40;;
69534;SDS011;56754;51.568;5.048;2023-05-20T05:30:43;6.23;;;2.50;;
69534;SDS011;56754;51.568;5.048;2023-05-20T05:33:08;7.10;;;2.50;;
69534;SDS011;56754;51.568;5.048;2023-05-20T05:35:33;6.30;;;2.30;;
69534;SDS011;56754;51.568;5.048;2023-05-20T05:37:59;6.47;;;2.20;;
69534;SDS011;56754;51.568;5.048;2023-05-20T05:40:25;6.10;;;2.10;;
69534;SDS011;56754;51.568;5.048;2023-05-20T05:42:51;5.63;;;2.03;;
69534;SDS011;56754;51.568;5.048;2023-05-20T05:45:16;6.73;;;2.07;;
69534;SDS011;56754;51.568;5.048;2023-05-20T05:47:42;6.43;;;2.10;;
69534;SDS011;56754;51.568;5.048;2023-05-20T05:50:07;9.10;;;2.40;;
69534;SDS011;56754;51.568;5.048;2023-05-20T05:52:33;5.63;;;2.20;;
69534;SDS011;56754;51.568;5.048;2023-05-20T05:54:58;5.67;;;2.20;;
69534;SDS011;56754;51.568;5.048;2023-05-20T05:57:23;7.47;;;2.33;;
69534;SDS011;56754;51.568;5.048;2023-05-20T05:59:49;8.10;;;2.00;;
69534;SDS011;56754;51.568;5.048;2023-05-20T06:02:14;6.05;;;1.75;;
69534;SDS011;56754;51.568;5.048;2023-05-20T06:04:39;5.00;;;2.17;;
69534;SDS011;56754;51.568;5.048;2023-05-20T06:07:04;6.00;;;1.80;;
69534;SDS011;56754;51.568;5.048;2023-05-20T06:09:30;4.80;;;2.00;;
69534;SDS011;56754;51.568;5.048;2023-05-20T06:11:55;5.20;;;1.90;;
69534;SDS011;56754;51.568;5.048;2023-05-20T06:14:20;6.80;;;1.90;;
69534;SDS011;56754;51.568;5.048;2023-05-20T06:16:46;5.32;;;1.75;;
69534;SDS011;56754;51.568;5.048;2023-05-20T06:19:11;5.00;;;1.73;;
69534;SDS011;56754;51.568;5.048;2023-05-20T06:21:37;5.20;;;2.00;;
69534;SDS011;56754;51.568;5.048;2023-05-20T06:24:02;5.80;;;1.83;;
69534;SDS011;56754;51.568;5.048;2023-05-20T06:26:28;4.65;;;1.85;;
69534;SDS011;56754;51.568;5.048;2023-05-20T06:28:53;5.70;;;1.70;;
69534;SDS011;56754;51.568;5.048;2023-05-20T06:31:18;5.67;;;1.50;;
69534;SDS011;56754;51.568;5.048;2023-05-20T06:33:44;7.07;;;1.80;;
69534;SDS011;56754;51.568;5.048;2023-05-20T06:36:09;5.73;;;1.60;;
69534;SDS011;56754;51.568;5.048;2023-05-20T06:38:35;5.40;;;1.77;;
69534;SDS011;56754;51.568;5.048;2023-05-20T06:41:00;4.43;;;1.57;;
69534;SDS011;56754;51.568;5.048;2023-05-20T06:43:25;5.97;;;1.87;;
69534;SDS011;56754;51.568;5.048;2023-05-20T06:45:51;4.57;;;1.60;;
69534;SDS011;56754;51.568;5.048;2023-05-20T06:48:17;4.78;;;1.85;;
69534;SDS011;56754;51.568;5.048;2023-05-20T06:50:43;4.43;;;1.60;;
69534;SDS011;56754;51.568;5.048;2023-05-20T06:53:08;5.00;;;1.70;;
69534;SDS011;56754;51.568;5.048;2023-05-20T06:55:34;3.70;;;1.30;;
69534;SDS011;56754;51.568;5.048;2023-05-20T06:57:59;6.03;;;1.50;;
69534;SDS011;56754;51.568;5.048;2023-05-20T07:00:24;4.43;;;1.73;;
69534;SDS011;56754;51.568;5.048;2023-05-20T07:02:49;4.83;;;1.53;;
69534;SDS011;56754;51.568;5.048;2023-05-20T07:05:15;5.77;;;2.00;;
69534;SDS011;56754;51.568;5.048;2023-05-20T07:07:40;4.80;;;1.67;;
69534;SDS011;56754;51.568;5.048;2023-05-20T07:10:06;4.55;;;1.55;;
69534;SDS011;56754;51.568;5.048;2023-05-20T07:12:32;4.97;;;1.57;;
69534;SDS011;56754;51.568;5.048;2023-05-20T07:14:57;6.10;;;1.80;;
69534;SDS011;56754;51.568;5.048;2023-05-20T07:17:23;4.47;;;1.50;;
69534;SDS011;56754;51.568;5.048;2023-05-20T07:19:49;3.83;;;1.27;;
69534;SDS011;56754;51.568;5.048;2023-05-20T07:22:14;5.53;;;1.90;;
69534;SDS011;56754;51.568;5.048;2023-05-20T07:24:40;5.53;;;1.83;;
69534;SDS011;56754;51.568;5.048;2023-05-20T07:27:05;4.57;;;1.50;;
69534;SDS011;56754;51.568;5.048;2023-05-20T07:29:33;5.33;;;1.87;;
69534;SDS011;56754;51.568;5.048;2023-05-20T07:31:59;4.32;;;1.80;;
69534;SDS011;56754;51.568;5.048;2023-05-20T07:34:25;5.97;;;1.70;;
69534;SDS011;56754;51.568;5.048;2023-05-20T07:36:51;4.17;;;1.60;;
69534;SDS011;56754;51.568;5.048;2023-05-20T07:39:17;7.60;;;1.70;;
69534;SDS011;56754;51.568;5.048;2023-05-20T07:41:42;5.27;;;1.33;;
69534;SDS011;56754;51.568;5.048;2023-05-20T07:44:07;3.83;;;1.43;;
69534;SDS011;56754;51.568;5.048;2023-05-20T07:46:35;4.40;;;2.00;;
69534;SDS011;56754;51.568;5.048;2023-05-20T07:49:01;4.57;;;1.60;;
69534;SDS011;56754;51.568;5.048;2023-05-20T07:51:26;4.47;;;1.60;;
69534;SDS011;56754;51.568;5.048;2023-05-20T07:53:51;5.63;;;1.80;;
69534;SDS011;56754;51.568;5.048;2023-05-20T07:56:17;4.82;;;1.50;;
69534;SDS011;56754;51.568;5.048;2023-05-20T07:58:51;5.80;;;1.83;;
69534;SDS011;56754;51.568;5.048;2023-05-20T08:01:17;4.33;;;1.70;;
69534;SDS011;56754;51.568;5.048;2023-05-20T08:03:43;4.47;;;1.52;;
69534;SDS011;56754;51.568;5.048;2023-05-20T08:06:09;4.07;;;1.40;;
69534;SDS011;56754;51.568;5.048;2023-05-20T08:08:34;5.90;;;1.50;;
69534;SDS011;56754;51.568;5.048;2023-05-20T08:10:59;3.92;;;1.80;;
69534;SDS011;56754;51.568;5.048;2023-05-20T08:13:25;5.10;;;1.63;;
69534;SDS011;56754;51.568;5.048;2023-05-20T08:15:51;4.30;;;1.60;;
69534;SDS011;56754;51.568;5.048;2023-05-20T08:18:19;4.40;;;1.58;;
69534;SDS011;56754;51.568;5.048;2023-05-20T08:20:44;6.30;;;1.73;;
69534;SDS011;56754;51.568;5.048;2023-05-20T08:23:11;5.63;;;1.70;;
69534;SDS011;56754;51.568;5.048;2023-05-20T08:25:36;5.63;;;1.70;;
69534;SDS011;56754;51.568;5.048;2023-05-20T08:28:01;4.83;;;1.70;;
69534;SDS011;56754;51.568;5.048;2023-05-20T08:30:27;3.90;;;1.50;;
69534;SDS011;56754;51.568;5.048;2023-05-20T08:32:52;4.63;;;1.53;;
69534;SDS011;56754;51.568;5.048;2023-05-20T08:35:17;4.03;;;1.53;;
69534;SDS011;56754;51.568;5.048;2023-05-20T08:37:43;5.10;;;1.45;;
69534;SDS011;56754;51.568;5.048;2023-05-20T08:40:08;3.20;;;1.30;;
69534;SDS011;56754;51.568;5.048;2023-05-20T08:42:34;3.85;;;1.27;;
69534;SDS011;56754;51.568;5.048;2023-05-20T08:44:59;3.77;;;1.30;;
69534;SDS011;56754;51.568;5.048;2023-05-20T08:47:25;3.97;;;1.38;;
69534;SDS011;56754;51.568;5.048;2023-05-20T08:49:51;5.87;;;1.57;;
69534;SDS011;56754;51.568;5.048;2023-05-20T08:52:16;4.57;;;1.40;;
69534;SDS011;56754;51.568;5.048;2023-05-20T08:54:47;3.58;;;1.40;;
69534;SDS011;56754;51.568;5.048;2023-05-20T08:57:14;4.45;;;1.60;;
69534;SDS011;56754;51.568;5.048;2023-05-20T08:59:41;3.40;;;1.40;;
69534;SDS011;56754;51.568;5.048;2023-05-20T09:02:10;3.33;;;1.30;;
69534;SDS011;56754;51.568;5.048;2023-05-20T09:04:35;6.23;;;1.50;;
69534;SDS011;56754;51.568;5.048;2023-05-20T09:07:01;3.83;;;1.50;;
69534;SDS011;56754;51.568;5.048;2023-05-20T09:09:26;3.50;;;1.23;;
69534;SDS011;56754;51.568;5.048;2023-05-20T09:11:53;3.88;;;1.27;;
69534;SDS011;56754;51.568;5.048;2023-05-20T09:14:18;4.47;;;1.57;;
69534;SDS011;56754;51.568;5.048;2023-05-20T09:16:43;4.20;;;1.53;;
69534;SDS011;56754;51.568;5.048;2023-05-20T09:19:09;4.60;;;1.40;;
69534;SDS011;56754;51.568;5.048;2023-05-20T09:21:34;4.43;;;1.20;;
69534;SDS011;56754;51.568;5.048;2023-05-20T09:24:03;4.10;;;1.57;;
69534;SDS011;56754;51.568;5.048;2023-05-20T09:26:28;4.90;;;1.40;;
69534;SDS011;56754;51.568;5.048;2023-05-20T09:28:57;3.43;;;1.40;;
69534;SDS011;56754;51.568;5.048;2023-05-20T09:31:32;3.25;;;1.10;;
69534;SDS011;56754;51.568;5.048;2023-05-20T09:33:57;4.03;;;1.40;;
69534;SDS011;56754;51.568;5.048;2023-05-20T09:36:24;3.97;;;1.40;;
69534;SDS011;56754;51.568;5.048;2023-05-20T09:38:53;4.30;;;1.40;;
69534;SDS011;56754;51.568;5.048;2023-05-20T09:41:24;3.50;;;1.30;;
69534;SDS011;56754;51.568;5.048;2023-05-20T09:43:57;3.63;;;1.05;;
69534;SDS011;56754;51.568;5.048;2023-05-20T09:46:23;3.72;;;1.40;;
69534;SDS011;56754;51.568;5.048;2023-05-20T09:48:49;3.33;;;1.23;;
69534;SDS011;56754;51.568;5.048;2023-05-20T09:51:15;6.40;;;1.33;;
69534;SDS011;56754;51.568;5.048;2023-05-20T09:53:41;3.67;;;1.23;;
69534;SDS011;56754;51.568;5.048;2023-05-20T09:56:06;3.27;;;1.27;;
69534;SDS011;56754;51.568;5.048;2023-05-20T09:58:32;5.63;;;1.33;;
69534;SDS011;56754;51.568;5.048;2023-05-20T10:00:59;3.53;;;1.30;;
69534;SDS011;56754;51.568;5.048;2023-05-20T10:03:25;3.70;;;1.13;;
69534;SDS011;56754;51.568;5.048;2023-05-20T10:05:54;3.42;;;1.17;;
69534;SDS011;56754;51.568;5.048;2023-05-20T10:11:43;3.50;;;1.20;;
69534;SDS011;56754;51.568;5.048;2023-05-20T10:14:27;3.58;;;1.27;;
69534;SDS011;56754;51.568;5.048;2023-05-20T10:20:00;4.97;;;1.83;;
69534;SDS011;56754;51.568;5.048;2023-05-20T10:22:26;5.37;;;1.70;;
69534;SDS011;56754;51.568;5.048;2023-05-20T10:24:56;3.67;;;1.42;;
69534;SDS011;56754;51.568;5.048;2023-05-20T10:27:23;3.67;;;1.48;;
69534;SDS011;56754;51.568;5.048;2023-05-20T10:32:24;4.30;;;2.08;;
69534;SDS011;56754;51.568;5.048;2023-05-20T10:34:57;5.63;;;1.90;;
69534;SDS011;56754;51.568;5.048;2023-05-20T10:37:28;4.25;;;1.55;;
69534;SDS011;56754;51.568;5.048;2023-05-20T10:42:37;5.40;;;1.90;;
69534;SDS011;56754;51.568;5.048;2023-05-20T10:45:02;3.57;;;1.40;;
69534;SDS011;56754;51.568;5.048;2023-05-20T10:47:29;4.53;;;2.03;;
69534;SDS011;56754;51.568;5.048;2023-05-20T10:49:55;4.47;;;1.55;;
69534;SDS011;56754;51.568;5.048;2023-05-20T10:52:20;5.10;;;1.70;;
69534;SDS011;56754;51.568;5.048;2023-05-20T10:54:57;3.33;;;1.30;;
69534;SDS011;56754;51.568;5.048;2023-05-20T10:57:25;8.30;;;1.90;;
69534;SDS011;56754;51.568;5.048;2023-05-20T10:59:52;3.58;;;1.40;;
69534;SDS011;56754;51.568;5.048;2023-05-20T11:02:18;4.87;;;1.80;;
69534;SDS011;56754;51.568;5.048;2023-05-20T11:04:45;4.63;;;1.48;;
69534;SDS011;56754;51.568;5.048;2023-05-20T11:07:10;4.85;;;1.35;;
69534;SDS011;56754;51.568;5.048;2023-05-20T11:09:36;4.60;;;1.60;;
69534;SDS011;56754;51.568;5.048;2023-05-20T11:12:01;4.23;;;1.43;;
69534;SDS011;56754;51.568;5.048;2023-05-20T11:14:27;3.85;;;1.40;;
69534;SDS011;56754;51.568;5.048;2023-05-20T11:16:59;5.37;;;1.50;;
69534;SDS011;56754;51.568;5.048;2023-05-20T11:19:25;4.35;;;1.40;;
69534;SDS011;56754;51.568;5.048;2023-05-20T11:21:51;3.33;;;1.20;;
69534;SDS011;56754;51.568;5.048;2023-05-20T11:24:24;4.30;;;1.40;;
69534;SDS011;56754;51.568;5.048;2023-05-20T11:26:51;3.45;;;1.17;;
69534;SDS011;56754;51.568;5.048;2023-05-20T11:29:17;3.90;;;1.50;;
69534;SDS011;56754;51.568;5.048;2023-05-20T11:31:43;4.18;;;1.33;;
69534;SDS011;56754;51.568;5.048;2023-05-20T11:34:08;3.80;;;1.30;;
69534;SDS011;56754;51.568;5.048;2023-05-20T11:36:34;3.60;;;1.40;;
69534;SDS011;56754;51.568;5.048;2023-05-20T11:39:05;3.93;;;1.30;;
69534;SDS011;56754;51.568;5.048;2023-05-20T11:41:30;3.13;;;1.30;;
69534;SDS011;56754;51.568;5.048;2023-05-20T11:43:56;3.58;;;1.20;;
69534;SDS011;56754;51.568;5.048;2023-05-20T11:46:22;3.40;;;1.30;;
69534;SDS011;56754;51.568;5.048;2023-05-20T11:48:53;3.50;;;1.30;;
69534;SDS011;56754;51.568;5.048;2023-05-20T11:51:23;3.40;;;1.20;;
69534;SDS011;56754;51.568;5.048;2023-05-20T11:53:51;4.00;;;1.15;;
69534;SDS011;56754;51.568;5.048;2023-05-20T11:56:17;3.70;;;1.27;;
69534;SDS011;56754;51.568;5.048;2023-05-20T11:58:42;4.93;;;1.38;;
69534;SDS011;56754;51.568;5.048;2023-05-20T12:01:08;4.20;;;1.20;;
69534;SDS011;56754;51.568;5.048;2023-05-20T12:03:33;3.35;;;1.30;;
69534;SDS011;56754;51.568;5.048;2023-05-20T12:05:59;3.37;;;1.20;;
69534;SDS011;56754;51.568;5.048;2023-05-20T12:08:25;3.05;;;1.05;;
69534;SDS011;56754;51.568;5.048;2023-05-20T12:10:53;3.83;;;1.40;;
69534;SDS011;56754;51.568;5.048;2023-05-20T12:13:19;3.45;;;1.20;;
69534;SDS011;56754;51.568;5.048;2023-05-20T12:15:44;3.40;;;1.30;;
69534;SDS011;56754;51.568;5.048;2023-05-20T12:18:09;2.97;;;1.20;;
69534;SDS011;56754;51.568;5.048;2023-05-20T12:20:35;3.00;;;1.07;;
69534;SDS011;56754;51.568;5.048;2023-05-20T12:23:00;4.73;;;1.30;;
69534;SDS011;56754;51.568;5.048;2023-05-20T12:25:25;3.17;;;1.00;;
69534;SDS011;56754;51.568;5.048;2023-05-20T12:27:51;3.70;;;1.10;;
69534;SDS011;56754;51.568;5.048;2023-05-20T12:30:17;3.40;;;1.30;;
69534;SDS011;56754;51.568;5.048;2023-05-20T12:32:44;3.55;;;1.20;;
69534;SDS011;56754;51.568;5.048;2023-05-20T12:35:11;3.13;;;1.23;;
69534;SDS011;56754;51.568;5.048;2023-05-20T12:37:39;3.10;;;1.20;;
69534;SDS011;56754;51.568;5.048;2023-05-20T12:40:06;3.00;;;1.20;;
69534;SDS011;56754;51.568;5.048;2023-05-20T12:42:35;4.07;;;1.20;;
69534;SDS011;56754;51.568;5.048;2023-05-20T12:45:04;3.10;;;1.05;;
69534;SDS011;56754;51.568;5.048;2023-05-20T12:47:31;2.80;;;0.95;;
69534;SDS011;56754;51.568;5.048;2023-05-20T12:49:58;3.00;;;1.00;;
69534;SDS011;56754;51.568;5.048;2023-05-20T12:52:24;2.97;;;1.20;;
69534;SDS011;56754;51.568;5.048;2023-05-20T12:54:53;3.40;;;1.25;;
69534;SDS011;56754;51.568;5.048;2023-05-20T12:57:19;3.10;;;1.30;;
69534;SDS011;56754;51.568;5.048;2023-05-20T12:59:44;2.67;;;0.90;;
69534;SDS011;56754;51.568;5.048;2023-05-20T13:02:10;2.83;;;1.20;;
69534;SDS011;56754;51.568;5.048;2023-05-20T13:04:35;2.67;;;0.90;;
69534;SDS011;56754;51.568;5.048;2023-05-20T13:07:01;4.50;;;1.20;;
69534;SDS011;56754;51.568;5.048;2023-05-20T13:09:27;3.78;;;1.20;;
69534;SDS011;56754;51.568;5.048;2023-05-20T13:11:52;2.63;;;1.03;;
69534;SDS011;56754;51.568;5.048;2023-05-20T13:14:17;3.13;;;1.30;;
69534;SDS011;56754;51.568;5.048;2023-05-20T13:16:43;2.92;;;1.00;;
69534;SDS011;56754;51.568;5.048;2023-05-20T13:19:08;4.13;;;1.37;;
69534;SDS011;56754;51.568;5.048;2023-05-20T13:21:33;2.73;;;1.10;;
69534;SDS011;56754;51.568;5.048;2023-05-20T13:23:59;7.40;;;1.37;;
69534;SDS011;56754;51.568;5.048;2023-05-20T13:26:24;3.27;;;1.20;;
69534;SDS011;56754;51.568;5.048;2023-05-20T13:28:49;3.93;;;1.10;;
69534;SDS011;56754;51.568;5.048;2023-05-20T13:31:15;4.47;;;1.23;;
69534;SDS011;56754;51.568;5.048;2023-05-20T13:33:40;3.93;;;1.30;;
69534;SDS011;56754;51.568;5.048;2023-05-20T13:36:05;3.20;;;1.23;;
69534;SDS011;56754;51.568;5.048;2023-05-20T13:38:31;3.60;;;1.00;;
69534;SDS011;56754;51.568;5.048;2023-05-20T13:40:56;3.73;;;1.20;;
69534;SDS011;56754;51.568;5.048;2023-05-20T13:43:21;3.67;;;1.20;;
69534;SDS011;56754;51.568;5.048;2023-05-20T13:45:47;3.47;;;1.17;;
69534;SDS011;56754;51.568;5.048;2023-05-20T13:48:12;4.67;;;1.30;;
69534;SDS011;56754;51.568;5.048;2023-05-20T13:50:37;2.80;;;1.00;;
69534;SDS011;56754;51.568;5.048;2023-05-20T13:53:02;4.50;;;1.20;;
69534;SDS011;56754;51.568;5.048;2023-05-20T13:55:28;2.30;;;0.90;;
69534;SDS011;56754;51.568;5.048;2023-05-20T13:57:53;3.27;;;1.20;;
69534;SDS011;56754;51.568;5.048;2023-05-20T14:00:19;2.53;;;1.00;;
69534;SDS011;56754;51.568;5.048;2023-05-20T14:02:44;3.17;;;1.08;;
69534;SDS011;56754;51.568;5.048;2023-05-20T14:05:09;3.50;;;1.37;;
69534;SDS011;56754;51.568;5.048;2023-05-20T14:07:35;2.77;;;1.03;;
69534;SDS011;56754;51.568;5.048;2023-05-20T14:10:00;3.40;;;1.20;;
69534;SDS011;56754;51.568;5.048;2023-05-20T14:12:26;3.38;;;1.30;;
69534;SDS011;56754;51.568;5.048;2023-05-20T14:14:51;3.17;;;1.23;;
69534;SDS011;56754;51.568;5.048;2023-05-20T14:17:16;3.10;;;1.07;;
69534;SDS011;56754;51.568;5.048;2023-05-20T14:19:42;3.40;;;1.13;;
69534;SDS011;56754;51.568;5.048;2023-05-20T14:22:07;3.27;;;1.20;;
69534;SDS011;56754;51.568;5.048;2023-05-20T14:24:32;3.83;;;1.30;;
69534;SDS011;56754;51.568;5.048;2023-05-20T14:26:57;3.90;;;1.23;;
69534;SDS011;56754;51.568;5.048;2023-05-20T14:29:23;3.30;;;1.13;;
69534;SDS011;56754;51.568;5.048;2023-05-20T14:31:48;3.13;;;1.13;;
69534;SDS011;56754;51.568;5.048;2023-05-20T14:34:13;2.63;;;1.00;;
69534;SDS011;56754;51.568;5.048;2023-05-20T14:36:39;4.30;;;1.43;;
69534;SDS011;56754;51.568;5.048;2023-05-20T14:39:04;2.77;;;1.23;;
69534;SDS011;56754;51.568;5.048;2023-05-20T14:41:29;2.20;;;0.93;;
69534;SDS011;56754;51.568;5.048;2023-05-20T14:43:55;3.43;;;1.10;;
69534;SDS011;56754;51.568;5.048;2023-05-20T14:46:21;2.70;;;1.07;;
69534;SDS011;56754;51.568;5.048;2023-05-20T14:48:47;3.05;;;1.10;;
69534;SDS011;56754;51.568;5.048;2023-05-20T14:51:12;3.30;;;1.17;;
69534;SDS011;56754;51.568;5.048;2023-05-20T14:53:37;3.80;;;1.20;;